Aérodrome :
LOGIN :

S'inscrire | Disclaimer

   EN    FR    IT 

 










Légende :    VFR   VFR Marginal   IFR   IFR Intensif   IFR Très Intensif
Visi : 
Plafond : 
>= 8 km
>= 3000ft
5 à 8 km
1000 à 3000 ft
1500m à 5 km
500 à 1000 ft
800 à 1500m
200 à 500 ft
< 800m
< 200 ft
Symboles :   Orages  Brouillard  Fortes neiges  Fortes précipitations  Vent > 20 kt
SIGMETs :   Divers  Orages  Givrage  Turbulence  Onde Orograph.  Cendres Volcan.






- Altitude de l'aérodrome : 78 ft
- Code IATA : LED


ULLI - Pulkovo

DERNIER METAR :
  • 270230Z 04003MPS CAVOK M03/M07 Q0997 R10R/290050 NOSIG

METARs EXPIRÉS :
  • 270200Z 04003MPS CAVOK M03/M08 Q0997 R10R/290050 NOSIG
  • 270130Z 04003MPS CAVOK M03/M08 Q0997 R10R/290050 NOSIG
  • 270100Z 03003MPS CAVOK M02/M08 Q0997 R10R/290050 NOSIG
  • 270030Z 03003MPS CAVOK M02/M08 Q0997 R10R/290050 NOSIG
  • 270000Z 04003MPS CAVOK M02/M08 Q0997 R10R/290050 NOSIG
  • 262330Z 04003MPS CAVOK M02/M08 Q0997 R10R/290050 NOSIG

TAF TAF ULLI
Valide du 27 à 00h jusqu'au 28 à 00h UTC


262256Z 2700/2724 03003MPS 6000 BKN013
TEMPO 2700/2705 3100 -SHSN BR BKN011 BKN015CB
BECMG 2705/2706 06006MPS
TEMPO 2706/2713 07007G13MPS
TEMPO 2713/2724 05009G14MPS 3100 -SHSN DRSN BKN011 BKN015CB



MET'MAP, la Météo Aéronautique d'un coup d'oeil ! - Copyright ORBIFLY Décembre 2007 - Disclaimer

ORBIFLY MET'MAP TEAM :

Programmation & Développement : Alexandra Zaïnal
Sur une idée originale de : Baudouin d'Aumeries
Assistance à la programmation : Marc-Olivier Méhu
Soutien technique & logistique : Manuel Goepfert

Contact : metmap@orbifly.com




SOURCES & CREDITS :

   NOAA